createdAt,value
2023-02-27T00:01:34.279Z,100.00
2023-02-27T00:04:01.273Z,100.00
2023-02-27T00:06:28.643Z,100.00
2023-02-27T00:09:10.085Z,100.00
2023-02-27T00:11:39.263Z,100.00
2023-02-27T00:14:06.850Z,100.00
2023-02-27T00:28:21.468Z,100.00
2023-02-27T00:33:34.036Z,100.00
2023-02-27T00:44:07.953Z,100.00
2023-02-27T00:47:06.903Z,100.00
2023-02-27T01:02:25.963Z,100.00
2023-02-27T01:04:56.134Z,100.00
2023-02-27T01:07:24.386Z,100.00
2023-02-27T01:09:51.089Z,100.00
2023-02-27T01:12:18.047Z,100.00
2023-02-27T01:14:44.870Z,100.00
2023-02-27T01:17:13.189Z,100.00
2023-02-27T01:19:45.157Z,100.00
2023-02-27T01:22:12.096Z,100.00
2023-02-27T01:24:42.260Z,100.00
2023-02-27T01:27:09.108Z,100.00
2023-02-27T01:29:37.477Z,100.00
2023-02-27T01:32:04.795Z,100.00
2023-02-27T01:34:33.946Z,100.00
2023-02-27T01:37:06.981Z,100.00
2023-02-27T01:39:34.602Z,100.00
2023-02-27T01:42:02.028Z,100.00
2023-02-27T01:44:30.706Z,100.00
2023-02-27T01:47:00.493Z,100.00
2023-02-27T01:49:35.047Z,100.00
2023-02-27T01:52:08.348Z,100.00
2023-02-27T01:54:40.185Z,100.00
2023-02-27T01:57:09.444Z,100.00
2023-02-27T01:59:38.798Z,100.00
2023-02-27T02:02:13.436Z,100.00
2023-02-27T02:04:41.220Z,100.00
2023-02-27T02:07:13.847Z,100.00
2023-02-27T02:09:45.013Z,100.00
2023-02-27T02:12:15.952Z,100.00
2023-02-27T02:14:43.210Z,100.00
2023-02-27T02:17:18.666Z,100.00
2023-02-27T02:20:30.271Z,100.00
2023-02-27T02:23:28.462Z,100.00
2023-02-27T02:26:18.890Z,100.00
2023-02-27T02:29:13.793Z,100.00
2023-02-27T02:32:20.006Z,100.00
2023-02-27T02:35:22.254Z,100.00
2023-02-27T02:38:15.435Z,100.00
2023-02-27T02:40:46.521Z,100.00
2023-02-27T02:43:19.863Z,100.00
2023-02-27T02:45:55.653Z,100.00
2023-02-27T02:48:30.006Z,100.00
2023-02-27T02:51:06.054Z,100.00
2023-02-27T02:53:42.172Z,100.00
2023-02-27T02:56:19.926Z,100.00
2023-02-27T02:58:54.846Z,100.00
2023-02-27T03:01:27.377Z,100.00
2023-02-27T03:04:02.662Z,100.00
2023-02-27T03:06:33.557Z,100.00
2023-02-27T03:09:09.717Z,100.00
2023-02-27T03:11:41.102Z,100.00
2023-02-27T03:14:13.835Z,100.00
2023-02-27T03:16:43.951Z,100.00
2023-02-27T03:19:16.998Z,100.00
2023-02-27T03:27:27.338Z,100.00
2023-02-27T03:30:04.954Z,100.00
2023-02-27T03:38:20.166Z,100.00
2023-02-27T03:41:05.917Z,100.00
2023-02-27T03:46:28.995Z,100.00
2023-02-27T03:48:56.005Z,100.00
2023-02-27T03:51:25.729Z,100.00
2023-02-27T03:53:57.287Z,100.00
2023-02-27T03:56:30.834Z,100.00
2023-02-27T03:58:59.217Z,100.00
2023-02-27T04:01:26.732Z,100.00
2023-02-27T04:03:57.685Z,100.00
2023-02-27T04:06:48.999Z,100.00
2023-02-27T04:09:26.055Z,100.00
2023-02-27T04:12:20.900Z,100.00
2023-02-27T04:15:04.227Z,100.00
2023-02-27T04:17:35.228Z,100.00
2023-02-27T04:20:22.128Z,100.00
2023-02-27T04:22:53.783Z,100.00
2023-02-27T04:25:41.054Z,100.00
2023-02-27T04:28:17.669Z,100.00
2023-02-27T04:31:01.356Z,100.00
2023-02-27T04:33:40.101Z,100.00
2023-02-27T04:36:13.155Z,100.00
2023-02-27T04:38:47.992Z,100.00
2023-02-27T04:41:19.716Z,100.00
2023-02-27T04:43:49.914Z,100.00
2023-02-27T04:46:21.032Z,100.00
2023-02-27T04:48:54.309Z,100.00
2023-02-27T04:51:28.531Z,100.00
2023-02-27T04:54:00.059Z,100.00
2023-02-27T04:56:31.052Z,100.00
2023-02-27T04:59:05.948Z,100.00
2023-02-27T05:01:36.922Z,100.00
2023-02-27T05:04:05.608Z,100.00
2023-02-27T05:06:36.529Z,100.00
2023-02-27T05:09:13.914Z,100.00
2023-02-27T05:11:47.748Z,100.00
2023-02-27T05:14:19.947Z,100.00
2023-02-27T05:16:52.307Z,100.00
2023-02-27T05:19:19.765Z,100.00
2023-02-27T05:21:53.860Z,100.00
2023-02-27T05:24:27.997Z,100.00
2023-02-27T05:27:10.852Z,100.00
2023-02-27T05:29:45.592Z,100.00
2023-02-27T05:32:21.561Z,100.00
2023-02-27T05:34:55.996Z,100.00
2023-02-27T05:37:28.953Z,100.00
2023-02-27T05:39:55.771Z,100.00
2023-02-27T05:42:27.076Z,100.00
2023-02-27T05:45:02.120Z,100.00
2023-02-27T05:47:32.859Z,100.00
2023-02-27T05:50:07.791Z,100.00
2023-02-27T05:52:37.237Z,100.00
2023-02-27T05:55:08.920Z,100.00
2023-02-27T05:57:40.959Z,100.00
2023-02-27T06:00:18.257Z,100.00
2023-02-27T06:02:45.371Z,100.00
2023-02-27T06:05:15.127Z,100.00
2023-02-27T06:07:42.071Z,100.00
2023-02-27T06:10:13.585Z,100.00
2023-02-27T06:12:41.252Z,100.00
2023-02-27T06:15:11.447Z,100.00
2023-02-27T06:17:38.906Z,100.00
2023-02-27T06:20:07.517Z,100.00
2023-02-27T06:22:34.640Z,100.00
2023-02-27T06:25:02.331Z,100.00
2023-02-27T06:27:29.322Z,100.00
2023-02-27T06:29:56.426Z,100.00
2023-02-27T06:32:25.268Z,100.00
2023-02-27T06:34:52.647Z,100.00
2023-02-27T06:37:20.169Z,100.00
2023-02-27T06:39:46.859Z,100.00
2023-02-27T06:42:13.637Z,100.00
2023-02-27T06:44:40.609Z,100.00
2023-02-27T06:47:07.534Z,100.00
2023-02-27T06:49:35.694Z,100.00
2023-02-27T06:52:02.398Z,100.00
2023-02-27T06:54:29.132Z,100.00
2023-02-27T06:56:55.928Z,100.00
2023-02-27T06:59:22.682Z,100.00
2023-02-27T07:01:49.359Z,100.00
2023-02-27T07:04:16.688Z,100.00
2023-02-27T07:07:34.078Z,100.00
2023-02-27T07:09:32.952Z,100.00
2023-02-27T07:18:22.366Z,100.00
2023-02-27T07:20:50.508Z,100.00
2023-02-27T07:23:18.928Z,100.00
2023-02-27T07:25:47.466Z,100.00
2023-02-27T07:28:14.310Z,100.00
2023-02-27T07:30:41.313Z,100.00
2023-02-27T07:33:08.200Z,100.00
2023-02-27T07:35:34.957Z,100.00
2023-02-27T07:38:01.772Z,100.00
2023-02-27T07:40:29.876Z,100.00
2023-02-27T07:42:56.531Z,100.00
2023-02-27T07:45:23.558Z,100.00
2023-02-27T07:47:50.297Z,100.00
2023-02-27T07:50:17.479Z,100.00
2023-02-27T07:52:44.555Z,100.00
2023-02-27T07:55:13.156Z,100.00
2023-02-27T07:57:41.246Z,100.00
2023-02-27T08:00:09.253Z,100.00
2023-02-27T08:02:39.076Z,100.00
2023-02-27T08:05:06.776Z,100.00
2023-02-27T08:07:33.603Z,100.00
2023-02-27T08:10:00.282Z,100.00
2023-02-27T08:12:27.017Z,100.00
2023-02-27T08:14:55.079Z,100.00
2023-02-27T08:17:21.798Z,100.00
2023-02-27T08:19:48.543Z,100.00
2023-02-27T08:22:15.261Z,100.00
2023-02-27T08:24:42.081Z,100.00
2023-02-27T08:27:09.000Z,100.00
2023-02-27T08:29:35.845Z,100.00
2023-02-27T08:32:04.380Z,100.00
2023-02-27T08:34:31.181Z,100.00
2023-02-27T08:36:58.253Z,100.00
2023-02-27T08:39:25.156Z,100.00
2023-02-27T08:41:52.021Z,100.00
2023-02-27T08:44:18.947Z,100.00
2023-02-27T08:46:45.774Z,100.00
2023-02-27T08:49:16.451Z,100.00
2023-02-27T08:51:44.360Z,100.00
2023-02-27T08:54:11.124Z,100.00
2023-02-27T08:56:37.881Z,100.00
2023-02-27T08:59:04.679Z,100.00
2023-02-27T09:01:31.684Z,100.00
2023-02-27T09:03:58.706Z,100.00
2023-02-27T09:06:26.931Z,100.00
2023-02-27T09:08:53.770Z,100.00
2023-02-27T09:11:20.615Z,100.00
2023-02-27T09:13:47.489Z,100.00
2023-02-27T09:16:14.245Z,100.00
2023-02-27T09:18:41.057Z,100.00
2023-02-27T09:21:07.877Z,100.00
2023-02-27T09:23:36.043Z,100.00
2023-02-27T09:26:02.943Z,100.00
2023-02-27T09:28:29.725Z,100.00
2023-02-27T09:30:59.977Z,100.00
2023-02-27T09:33:29.090Z,100.00
2023-02-27T09:35:56.099Z,100.00
2023-02-27T09:38:22.870Z,100.00
2023-02-27T09:40:55.842Z,100.00
2023-02-27T09:43:28.365Z,100.00
2023-02-27T09:45:56.500Z,100.00
2023-02-27T09:48:30.075Z,100.00
2023-02-27T09:50:58.438Z,100.00
2023-02-27T09:53:30.233Z,100.00
2023-02-27T09:56:08.659Z,100.00
2023-02-27T09:58:45.246Z,100.00
2023-02-27T10:01:19.128Z,100.00
2023-02-27T10:04:21.258Z,100.00
2023-02-27T10:06:52.632Z,100.00
2023-02-27T10:09:32.201Z,100.00
2023-02-27T10:12:20.139Z,100.00
2023-02-27T10:14:51.573Z,100.00
2023-02-27T10:17:23.876Z,100.00
2023-02-27T10:19:53.715Z,100.00
2023-02-27T10:22:26.510Z,100.00
2023-02-27T10:24:56.959Z,100.00
2023-02-27T10:27:25.405Z,100.00
2023-02-27T10:29:55.073Z,100.00
2023-02-27T10:32:25.447Z,100.00
2023-02-27T10:34:56.107Z,90.92
2023-02-27T10:37:26.990Z,83.47
2023-02-27T10:40:00.186Z,86.10
2023-02-27T10:42:32.612Z,83.11
2023-02-27T10:44:59.574Z,88.82
2023-02-27T10:47:28.562Z,89.88
2023-02-27T10:49:56.235Z,98.53
2023-02-27T10:52:22.949Z,100.00
2023-02-27T10:54:49.836Z,100.00
2023-02-27T10:57:25.223Z,100.00
2023-02-27T10:59:54.686Z,90.42
2023-02-27T11:02:24.876Z,87.56
2023-02-27T11:04:53.867Z,93.77
2023-02-27T11:07:31.567Z,92.75
2023-02-27T11:10:04.916Z,96.45
2023-02-27T11:12:35.038Z,100.00
2023-02-27T11:15:23.279Z,100.00
2023-02-27T11:17:50.914Z,100.00
2023-02-27T11:20:36.081Z,96.57
2023-02-27T11:31:41.497Z,100.00
2023-02-27T11:47:13.482Z,96.16
2023-02-27T11:55:32.492Z,100.00
2023-02-27T11:58:04.665Z,100.00
2023-02-27T12:00:38.497Z,100.00
2023-02-27T12:03:19.220Z,100.00
2023-02-27T12:05:49.265Z,100.00
2023-02-27T12:08:21.831Z,100.00
2023-02-27T12:11:07.803Z,100.00
2023-02-27T12:13:43.716Z,100.00
2023-02-27T12:16:27.845Z,100.00
2023-02-27T12:19:26.292Z,100.00
2023-02-27T12:22:02.077Z,100.00
2023-02-27T12:24:33.890Z,100.00
2023-02-27T12:27:16.404Z,100.00
2023-02-27T12:29:49.414Z,100.00
2023-02-27T12:32:21.135Z,100.00
2023-02-27T12:34:52.023Z,100.00
2023-02-27T12:37:24.114Z,100.00
2023-02-27T12:39:54.376Z,100.00
2023-02-27T12:42:47.652Z,100.00
2023-02-27T12:45:22.831Z,100.00
2023-02-27T12:47:58.404Z,100.00
2023-02-27T12:50:26.167Z,100.00
2023-02-27T12:53:25.414Z,100.00
2023-02-27T12:55:54.702Z,100.00
2023-02-27T12:58:37.282Z,100.00
2023-02-27T13:01:17.211Z,100.00
2023-02-27T13:03:50.417Z,100.00
2023-02-27T13:06:22.841Z,100.00
2023-02-27T13:09:14.472Z,100.00
2023-02-27T13:11:48.617Z,100.00
2023-02-27T13:14:27.974Z,100.00
2023-02-27T13:17:00.930Z,100.00
2023-02-27T13:19:31.697Z,100.00
2023-02-27T13:22:06.752Z,100.00
2023-02-27T13:24:35.568Z,100.00
2023-02-27T13:27:07.425Z,100.00
2023-02-27T13:29:40.142Z,100.00
2023-02-27T13:32:29.992Z,100.00
2023-02-27T13:35:20.348Z,100.00
2023-02-27T13:37:52.026Z,100.00
2023-02-27T13:40:41.969Z,100.00
2023-02-27T13:43:29.521Z,100.00
2023-02-27T13:45:58.659Z,100.00
2023-02-27T13:48:39.869Z,100.00
2023-02-27T13:51:26.248Z,100.00
2023-02-27T13:54:08.278Z,100.00
2023-02-27T13:56:36.559Z,100.00
2023-02-27T13:59:11.409Z,100.00
2023-02-27T14:01:39.128Z,100.00
2023-02-27T14:04:07.885Z,100.00
2023-02-27T14:06:44.701Z,100.00
2023-02-27T14:09:15.346Z,100.00
2023-02-27T14:11:53.682Z,100.00
2023-02-27T14:14:43.305Z,100.00
2023-02-27T14:17:12.536Z,100.00
2023-02-27T14:19:51.516Z,100.00
2023-02-27T14:22:56.230Z,100.00
2023-02-27T14:25:30.536Z,100.00
2023-02-27T14:28:00.338Z,100.00
2023-02-27T14:30:37.852Z,100.00
2023-02-27T14:33:21.664Z,100.00
2023-02-27T14:36:00.116Z,100.00
2023-02-27T14:38:28.455Z,100.00
2023-02-27T14:41:14.761Z,100.00
2023-02-27T14:43:46.176Z,100.00
2023-02-27T14:46:28.610Z,100.00
2023-02-27T14:48:58.338Z,100.00
2023-02-27T14:51:26.488Z,100.00
2023-02-27T14:54:02.671Z,100.00
2023-02-27T14:56:30.106Z,100.00
2023-02-27T14:59:04.210Z,100.00
2023-02-27T15:01:36.104Z,100.00
2023-02-27T15:04:04.878Z,100.00
2023-02-27T15:06:36.643Z,100.00
2023-02-27T15:09:04.605Z,100.00
2023-02-27T15:11:31.472Z,100.00
2023-02-27T15:14:02.186Z,100.00
2023-02-27T15:16:33.760Z,100.00
2023-02-27T15:19:04.428Z,100.00
2023-02-27T15:21:34.302Z,100.00
2023-02-27T15:24:02.983Z,100.00
2023-02-27T15:26:34.683Z,100.00
2023-02-27T15:29:04.332Z,100.00
2023-02-27T15:31:31.651Z,100.00
2023-02-27T15:34:00.576Z,100.00
2023-02-27T15:36:30.126Z,100.00
2023-02-27T15:39:07.582Z,100.00
2023-02-27T15:41:35.498Z,100.00
2023-02-27T15:44:04.793Z,100.00
2023-02-27T15:46:32.192Z,100.00
2023-02-27T15:49:00.032Z,100.00
2023-02-27T15:51:28.837Z,100.00
2023-02-27T15:54:00.241Z,100.00
2023-02-27T15:56:32.045Z,100.00
2023-02-27T15:59:01.189Z,100.00
2023-02-27T16:01:31.788Z,100.00
2023-02-27T16:04:00.664Z,100.00
2023-02-27T16:06:30.702Z,100.00
2023-02-27T16:08:59.651Z,100.00
2023-02-27T16:11:29.821Z,100.00
2023-02-27T16:13:57.088Z,100.00
2023-02-27T16:16:31.465Z,100.00
2023-02-27T16:18:59.699Z,100.00
2023-02-27T16:21:28.175Z,100.00
2023-02-27T16:23:55.128Z,100.00
2023-02-27T16:26:27.652Z,100.00
2023-02-27T16:28:58.673Z,100.00
2023-02-27T16:31:30.034Z,100.00
2023-02-27T16:34:17.670Z,100.00
2023-02-27T16:42:20.895Z,100.00
2023-02-27T16:44:47.774Z,100.00
2023-02-27T16:47:14.560Z,100.00
2023-02-27T16:49:42.929Z,100.00
2023-02-27T16:52:10.815Z,100.00
2023-02-27T16:54:37.504Z,100.00
2023-02-27T16:57:05.038Z,100.00
2023-02-27T16:59:34.605Z,100.00
2023-02-27T17:02:03.281Z,100.00
2023-02-27T17:04:30.578Z,100.00
2023-02-27T17:07:00.696Z,100.00
2023-02-27T17:09:27.421Z,100.00
2023-02-27T17:11:55.120Z,100.00
2023-02-27T17:14:22.203Z,100.00
2023-02-27T17:16:49.352Z,100.00
2023-02-27T17:19:16.618Z,100.00
2023-02-27T17:21:43.348Z,100.00
2023-02-27T17:24:11.427Z,100.00
2023-02-27T17:26:38.279Z,100.00
2023-02-27T17:29:05.237Z,100.00
2023-02-27T17:31:32.636Z,100.00
2023-02-27T17:33:59.846Z,100.00
2023-02-27T17:36:29.897Z,100.00
2023-02-27T17:38:58.440Z,100.00
2023-02-27T17:44:39.389Z,100.00
2023-02-27T17:47:06.170Z,100.00
2023-02-27T17:49:32.950Z,100.00
2023-02-27T17:51:59.658Z,100.00
2023-02-27T17:54:26.820Z,100.00
2023-02-27T17:56:53.582Z,100.00
2023-02-27T17:59:20.421Z,100.00
2023-02-27T18:01:48.893Z,100.00
2023-02-27T18:04:15.782Z,100.00
2023-02-27T18:06:42.572Z,100.00
2023-02-27T18:09:09.529Z,100.00
2023-02-27T18:11:38.460Z,100.00
2023-02-27T18:14:05.694Z,100.00
2023-02-27T18:16:32.646Z,100.00
2023-02-27T18:19:08.848Z,100.00
2023-02-27T18:21:35.968Z,100.00
2023-02-27T18:24:02.847Z,100.00
2023-02-27T18:26:32.213Z,100.00
2023-02-27T18:28:59.674Z,100.00
2023-02-27T18:31:28.507Z,100.00
2023-02-27T18:33:55.500Z,100.00
2023-02-27T18:36:24.044Z,100.00
2023-02-27T18:38:51.044Z,100.00
2023-02-27T18:41:23.905Z,100.00
2023-02-27T18:43:51.077Z,100.00
2023-02-27T18:46:18.062Z,100.00
2023-02-27T18:48:45.875Z,100.00
2023-02-27T18:51:14.656Z,100.00
2023-02-27T18:53:46.866Z,100.00
2023-02-27T18:56:15.132Z,100.00
2023-02-27T18:58:43.705Z,100.00
2023-02-27T19:01:18.840Z,100.00
2023-02-27T19:03:46.277Z,100.00
2023-02-27T19:06:16.281Z,100.00
2023-02-27T19:08:45.781Z,100.00
2023-02-27T19:11:21.243Z,100.00
2023-02-27T19:13:47.971Z,100.00
2023-02-27T19:16:14.670Z,100.00
2023-02-27T19:18:41.501Z,100.00
2023-02-27T19:21:08.261Z,100.00
2023-02-27T19:23:36.182Z,100.00
2023-02-27T19:26:05.054Z,100.00
2023-02-27T19:28:33.333Z,100.00
2023-02-27T19:31:00.315Z,100.00
2023-02-27T19:33:27.130Z,100.00
2023-02-27T19:35:54.451Z,100.00
2023-02-27T19:38:21.225Z,100.00
2023-02-27T19:40:47.985Z,100.00
2023-02-27T19:43:16.046Z,100.00
2023-02-27T19:45:42.874Z,100.00
2023-02-27T19:48:09.651Z,100.00
2023-02-27T19:50:36.388Z,100.00
2023-02-27T19:53:03.171Z,100.00
2023-02-27T19:55:30.073Z,100.00
2023-02-27T19:57:57.593Z,100.00
2023-02-27T20:00:26.708Z,100.00
2023-02-27T20:02:53.636Z,100.00
2023-02-27T20:05:20.748Z,100.00
2023-02-27T20:07:47.900Z,100.00
2023-02-27T20:10:15.363Z,100.00
2023-02-27T20:12:42.564Z,100.00
2023-02-27T20:15:11.883Z,100.00
2023-02-27T20:17:41.467Z,100.00
2023-02-27T20:20:09.628Z,100.00
2023-02-27T20:22:36.598Z,100.00
2023-02-27T20:25:03.722Z,100.00
2023-02-27T20:27:30.998Z,100.00
2023-02-27T20:29:57.768Z,100.00
2023-02-27T20:32:25.408Z,100.00
2023-02-27T20:34:55.837Z,100.00
2023-02-27T20:37:22.796Z,100.00
2023-02-27T20:39:49.779Z,100.00
2023-02-27T20:42:16.442Z,100.00
2023-02-27T20:44:43.162Z,100.00
2023-02-27T20:47:10.097Z,100.00
2023-02-27T20:49:38.054Z,100.00
2023-02-27T20:52:06.838Z,100.00
2023-02-27T20:54:35.813Z,100.00
2023-02-27T20:57:02.514Z,100.00
2023-02-27T20:59:30.209Z,100.00
2023-02-27T21:01:56.971Z,100.00
2023-02-27T21:04:25.736Z,100.00
2023-02-27T21:06:53.142Z,100.00
2023-02-27T21:09:21.287Z,100.00
2023-02-27T21:11:48.332Z,100.00
2023-02-27T21:14:15.208Z,100.00
2023-02-27T21:27:45.244Z,100.00
2023-02-27T21:35:47.308Z,100.00
2023-02-27T21:38:21.028Z,100.00
2023-02-27T21:40:49.663Z,100.00
2023-02-27T21:43:19.035Z,100.00
2023-02-27T21:45:48.961Z,100.00
2023-02-27T21:48:16.128Z,100.00
2023-02-27T21:50:43.284Z,100.00
2023-02-27T21:53:10.221Z,100.00
2023-02-27T21:55:37.047Z,100.00
2023-02-27T21:58:05.238Z,100.00
2023-02-27T22:00:31.930Z,100.00
2023-02-27T22:03:09.863Z,100.00
2023-02-27T22:05:40.329Z,100.00
2023-02-27T22:08:08.840Z,100.00
2023-02-27T22:10:36.785Z,100.00
2023-02-27T22:13:04.826Z,100.00
2023-02-27T22:15:31.865Z,100.00
2023-02-27T22:18:00.512Z,100.00
2023-02-27T22:20:29.028Z,100.00
2023-02-27T22:22:57.341Z,100.00
2023-02-27T22:25:33.983Z,100.00
2023-02-27T22:28:08.119Z,100.00
2023-02-27T22:30:54.420Z,100.00
2023-02-27T22:33:23.783Z,100.00
2023-02-27T22:38:32.362Z,100.00
2023-02-27T22:41:03.377Z,100.00
2023-02-27T22:43:33.292Z,100.00
2023-02-27T22:46:02.285Z,100.00
2023-02-27T22:48:32.733Z,100.00
2023-02-27T22:51:01.966Z,100.00
2023-02-27T22:53:30.402Z,100.00
2023-02-27T22:56:03.504Z,100.00
2023-02-27T22:58:30.227Z,100.00
2023-02-27T23:00:58.414Z,100.00
2023-02-27T23:03:28.090Z,100.00
2023-02-27T23:05:54.929Z,100.00
2023-02-27T23:08:22.010Z,100.00
2023-02-27T23:10:49.497Z,100.00
2023-02-27T23:13:16.379Z,100.00
2023-02-27T23:15:43.551Z,100.00
2023-02-27T23:18:11.991Z,100.00
2023-02-27T23:20:40.723Z,100.00
2023-02-27T23:23:10.151Z,100.00
2023-02-27T23:25:38.891Z,100.00
2023-02-27T23:28:07.466Z,100.00
2023-02-27T23:30:35.217Z,100.00
2023-02-27T23:33:02.368Z,100.00
2023-02-27T23:35:30.022Z,100.00
2023-02-27T23:38:00.527Z,100.00
2023-02-27T23:40:27.902Z,100.00
2023-02-27T23:42:55.065Z,100.00
2023-02-27T23:45:21.749Z,100.00
2023-02-27T23:47:50.518Z,100.00
2023-02-27T23:50:18.803Z,100.00
2023-02-27T23:52:48.321Z,100.00
2023-02-27T23:56:17.217Z,100.00
2023-02-27T23:59:42.860Z,100.00
